Time;durP1;ratioP1;P1;durP2;ratioP2;P2;SDS_P1;SDS_P2;PMS_P1;PMS_P2;Temp;Humidity;BMP_temperature;BMP_pressure;BME280_temperature;BME280_humidity;BME280_pressure;Samples;Min_cycle;Max_cycle;Signal;HPM_P1;HPM_P2
2022/04/15 00:00:04;;;;;;;9.25;5.80;;;;;;;9.10;76.23;102438.66;5021870;28;20037;-85
2022/04/15 00:02:30;;;;;;;18.90;12.55;;;;;;;9.05;75.82;102443.56;5022683;28;20038;-86
2022/04/15 00:04:57;;;;;;;21.20;13.23;;;;;;;9.04;75.79;102441.81;5022571;28;20601;-84
2022/04/15 00:07:22;;;;;;;19.58;12.63;;;;;;;9.05;75.80;102440.97;5012782;28;20018;-85
2022/04/15 00:09:48;;;;;;;22.38;13.18;;;;;;;9.05;75.73;102440.97;5021250;28;20045;-85
2022/04/15 00:12:17;;;;;;;22.73;13.18;;;;;;;9.08;76.18;102430.75;5022142;28;20010;-85
2022/04/15 00:14:44;;;;;;;21.83;13.55;;;;;;;9.08;76.54;102430.75;5022275;28;20070;-85
2022/04/15 00:17:10;;;;;;;19.08;12.05;;;;;;;9.03;76.62;102437.41;5022602;28;20041;-85
2022/04/15 00:19:36;;;;;;;18.35;11.45;;;;;;;8.93;76.50;102432.50;5021894;28;20037;-85
2022/04/15 00:22:01;;;;;;;15.38;10.23;;;;;;;8.87;76.10;102433.94;5025118;28;20053;-85
2022/04/15 00:24:27;;;;;;;19.05;12.68;;;;;;;8.84;76.07;102432.88;5025509;28;20173;-85
2022/04/15 00:26:53;;;;;;;21.05;13.55;;;;;;;8.85;76.27;102432.06;5026633;28;20009;-85
2022/04/15 00:29:18;;;;;;;20.55;12.80;;;;;;;8.84;75.70;102435.47;5025462;28;20097;-85
2022/04/15 00:31:43;;;;;;;21.65;13.65;;;;;;;8.83;75.72;102442.34;5026507;28;20041;-85
2022/04/15 00:34:09;;;;;;;24.90;13.50;;;;;;;8.83;75.58;102450.16;5026487;28;20026;-85
2022/04/15 00:36:34;;;;;;;19.23;13.10;;;;;;;8.75;75.26;102443.66;5024443;28;20089;-85
2022/04/15 00:38:59;;;;;;;20.23;13.40;;;;;;;8.76;74.97;102447.13;5025221;28;20014;-84
2022/04/15 00:41:25;;;;;;;19.27;12.50;;;;;;;8.72;74.85;102455.56;5025810;28;20222;-85
2022/04/15 00:43:55;;;;;;;18.60;11.93;;;;;;;8.66;75.72;102450.91;5024461;28;20338;-84
2022/04/15 00:46:21;;;;;;;22.20;13.48;;;;;;;8.59;76.04;102464.34;5025075;28;20080;-85
2022/04/15 00:48:47;;;;;;;18.88;12.32;;;;;;;8.59;75.97;102461.75;5024443;28;20018;-85
2022/04/15 00:51:12;;;;;;;15.13;10.00;;;;;;;8.53;74.90;102460.59;5025442;28;20025;-85
2022/04/15 00:53:40;;;;;;;14.63;9.73;;;;;;;8.47;75.11;102461.94;5024015;28;20029;-85
2022/04/15 00:56:08;;;;;;;15.43;10.18;;;;;;;8.42;76.24;102464.25;5025643;28;20121;-85
2022/04/15 00:58:33;;;;;;;15.82;10.48;;;;;;;8.44;76.38;102457.44;5023806;28;20014;-79
2022/04/15 01:01:00;;;;;;;16.60;10.57;;;;;;;8.42;76.08;102464.25;5025040;28;20036;-79
2022/04/15 01:03:26;;;;;;;14.13;9.32;;;;;;;8.40;76.46;102458.06;5023672;28;20205;-79
2022/04/15 01:05:57;;;;;;;13.38;8.35;;;;;;;8.40;77.07;102457.16;5025175;28;20307;-78
2022/04/15 01:08:25;;;;;;;16.52;10.88;;;;;;;8.37;77.82;102463.06;5024046;28;20018;-78
2022/04/15 01:10:53;;;;;;;18.15;11.48;;;;;;;8.32;77.59;102461.91;5024871;28;20045;-78
2022/04/15 01:13:21;;;;;;;13.10;8.57;;;;;;;8.18;77.09;102462.00;5024982;28;20026;-78
2022/04/15 01:15:47;;;;;;;15.02;9.20;;;;;;;8.09;77.41;102470.94;5023884;28;20037;-78
2022/04/15 01:18:13;;;;;;;18.60;10.73;;;;;;;8.06;77.79;102474.22;5024905;28;20017;-78
2022/04/15 01:20:39;;;;;;;16.83;10.25;;;;;;;8.06;77.64;102470.75;5023087;28;20041;-79
2022/04/15 01:23:08;;;;;;;17.10;10.95;;;;;;;8.04;77.57;102473.25;5024956;28;20025;-79
2022/04/15 01:25:34;;;;;;;;;;;;;;;8.17;76.09;102478.38;5025101;28;20061;-79
2022/04/15 01:27:59;;;;;;;16.17;9.55;;;;;;;8.08;76.84;102471.72;5023754;28;19905;-85
2022/04/15 01:30:25;;;;;;;17.45;9.93;;;;;;;8.05;77.24;102475.03;5024700;28;20026;-85
2022/04/15 01:32:51;;;;;;;18.15;10.98;;;;;;;8.04;77.53;102481.06;5022288;28;20013;-85
2022/04/15 01:35:18;;;;;;;17.25;10.80;;;;;;;8.07;77.89;102477.75;5023969;28;20057;-85
2022/04/15 01:37:45;;;;;;;16.55;8.77;;;;;;;8.01;77.29;102479.16;5024085;28;20014;-85
2022/04/15 01:40:12;;;;;;;12.95;7.47;;;;;;;8.01;78.00;102475.69;5013384;28;20014;-85
2022/04/15 01:42:39;;;;;;;12.52;7.88;;;;;;;7.90;78.45;102481.91;5023606;28;20030;-85
2022/04/15 01:45:06;;;;;;;13.52;8.13;;;;;;;7.91;79.58;102481.13;5023410;28;20258;-85
2022/04/15 01:47:31;;;;;;;15.15;9.68;;;;;;;7.86;79.22;102474.72;5024292;28;20105;-85
2022/04/15 01:49:57;;;;;;;15.82;10.43;;;;;;;7.90;78.92;102490.56;5022778;28;20014;-85
2022/04/15 01:52:22;;;;;;;13.68;8.15;;;;;;;7.87;77.27;102479.13;5013760;28;20018;-85
2022/04/15 01:54:47;;;;;;;14.70;8.30;;;;;;;7.84;76.91;102485.91;5023353;28;20085;-85
2022/04/15 01:57:14;;;;;;;14.32;8.55;;;;;;;7.82;77.34;102490.13;5022978;28;20024;-85
2022/04/15 01:59:40;;;;;;;14.05;8.18;;;;;;;7.82;77.01;102497.00;5022438;28;20020;-85
2022/04/15 02:02:06;;;;;;;13.13;7.25;;;;;;;7.79;77.16;102497.72;5023935;28;20089;-85
2022/04/15 02:04:32;;;;;;;10.63;7.00;;;;;;;7.75;76.61;102495.72;5023457;28;20045;-85
2022/04/15 02:06:57;;;;;;;12.38;8.18;;;;;;;7.72;76.63;102500.75;5019217;28;20347;-79
2022/04/15 02:09:22;;;;;;;16.17;8.90;;;;;;;7.66;76.33;102500.34;5024187;28;20049;-79
2022/04/15 02:11:48;;;;;;;13.05;7.53;;;;;;;7.61;76.08;102496.56;5022454;28;20148;-79
2022/04/15 02:14:16;;;;;;;13.93;8.50;;;;;;;7.58;76.30;102501.56;5024516;28;20026;-79
2022/04/15 02:16:42;;;;;;;14.32;8.77;;;;;;;7.54;76.32;102497.00;5022530;28;20064;-79
2022/04/15 02:19:08;;;;;;;11.30;7.82;;;;;;;7.51;76.12;102502.00;5023236;28;20018;-79
2022/04/15 02:21:33;;;;;;;10.48;6.93;;;;;;;7.50;76.38;102506.25;5022384;28;20037;-79
2022/04/15 02:23:58;;;;;;;10.80;7.57;;;;;;;7.40;76.96;102510.00;5024479;28;20033;-79
2022/04/15 02:26:24;;;;;;;10.40;7.72;;;;;;;7.35;78.00;102513.09;5023671;28;20049;-79
2022/04/15 02:28:49;;;;;;;14.27;8.68;;;;;;;7.38;78.35;102510.69;5022324;28;20271;-79
2022/04/15 02:31:15;;;;;;;18.58;10.82;;;;;;;7.36;78.47;102513.19;5023070;28;20029;-79
2022/04/15 02:33:41;;;;;;;17.80;10.13;;;;;;;7.36;78.26;102518.38;5022588;28;20113;-79
2022/04/15 02:36:06;;;;;;;16.23;10.30;;;;;;;7.32;77.97;102516.38;5023655;28;20475;-79
2022/04/15 02:38:32;;;;;;;18.33;10.40;;;;;;;7.29;78.62;102521.38;5022918;28;20006;-85
2022/04/15 02:40:57;;;;;;;18.27;9.50;;;;;;;7.28;78.12;102522.16;5021804;28;20002;-85
2022/04/15 02:43:25;;;;;;;15.80;9.45;;;;;;;7.24;78.04;102517.56;5014037;28;20064;-85
2022/04/15 02:45:51;;;;;;;15.07;8.25;;;;;;;7.20;78.26;102513.00;5023302;28;20020;-85
2022/04/15 02:48:16;;;;;;;15.20;8.65;;;;;;;7.19;78.32;102521.59;5022216;28;20029;-85
2022/04/15 02:50:42;;;;;;;14.90;8.70;;;;;;;7.18;77.90;102523.25;5023489;28;20028;-84
2022/04/15 02:53:07;;;;;;;13.65;8.25;;;;;;;7.17;78.34;102516.31;5022146;28;20030;-84
2022/04/15 02:55:32;;;;;;;10.13;6.15;;;;;;;7.20;77.81;102525.94;5023355;28;20302;-85
2022/04/15 02:57:58;;;;;;;11.88;7.90;;;;;;;7.19;77.73;102517.28;5023197;28;20288;-85
2022/04/15 03:00:23;;;;;;;11.75;7.00;;;;;;;7.15;77.52;102520.47;5022879;28;20089;-85
2022/04/15 03:02:48;;;;;;;13.63;7.97;;;;;;;7.12;77.45;102522.88;5023067;28;20032;-85
2022/04/15 03:05:14;;;;;;;17.77;9.85;;;;;;;7.09;77.91;102520.09;5023888;28;20272;-85
2022/04/15 03:07:40;;;;;;;21.77;12.43;;;;;;;7.07;79.21;102522.59;5022850;28;20271;-79
2022/04/15 03:10:06;;;;;;;15.48;9.65;;;;;;;7.05;78.36;102521.56;5023888;28;20159;-79
2022/04/15 03:12:36;;;;;;;20.65;12.30;;;;;;;7.03;78.28;102514.50;5021806;28;20169;-79
2022/04/15 03:15:06;;;;;;;19.92;11.50;;;;;;;7.02;78.01;102523.06;5023695;28;20029;-79
2022/04/15 03:17:33;;;;;;;21.00;12.57;;;;;;;7.00;78.06;102510.03;5022453;28;20274;-79
2022/04/15 03:20:02;;;;;;;17.60;11.13;;;;;;;6.97;78.19;102517.59;5022203;28;20076;-79
2022/04/15 03:22:28;;;;;;;14.20;8.70;;;;;;;6.96;77.57;102520.97;5022551;28;21329;-79
2022/04/15 03:24:53;;;;;;;21.55;10.95;;;;;;;6.94;78.21;102515.69;5022489;28;20037;-79
2022/04/15 03:27:18;;;;;;;22.08;11.95;;;;;;;6.93;78.05;102523.38;5022827;28;20033;-79
2022/04/15 03:29:44;;;;;;;21.67;12.00;;;;;;;6.90;77.65;102523.19;5021779;28;20072;-79
2022/04/15 03:32:10;;;;;;;20.23;11.80;;;;;;;6.88;77.27;102514.38;5021812;28;20033;-79
2022/04/15 03:34:36;;;;;;;21.48;11.30;;;;;;;6.85;78.16;102519.38;5022817;28;20014;-79
2022/04/15 03:37:03;;;;;;;19.67;11.13;;;;;;;6.86;78.20;102521.19;5023110;28;20026;-79
2022/04/15 03:39:28;;;;;;;21.45;9.90;;;;;;;6.83;78.26;102528.75;5022618;28;20030;-79
2022/04/15 03:41:53;;;;;;;20.42;9.50;;;;;;;6.75;78.06;102523.06;5023522;28;20018;-79
2022/04/15 03:44:19;;;;;;;20.75;10.18;;;;;;;6.77;79.63;102532.72;5022593;28;20025;-79
2022/04/15 03:46:44;;;;;;;25.95;12.93;;;;;;;6.78;79.94;102534.53;5022271;28;20017;-79
2022/04/15 03:49:09;;;;;;;15.70;8.48;;;;;;;6.76;79.79;102535.19;5020689;28;20030;-79
2022/04/15 03:51:34;;;;;;;13.95;8.10;;;;;;;6.72;79.71;102539.31;5022072;28;20454;-79
2022/04/15 03:54:00;;;;;;;18.52;9.82;;;;;;;6.67;79.74;102538.09;5022353;28;20280;-79
2022/04/15 03:56:26;;;;;;;23.85;12.73;;;;;;;6.64;80.72;102535.28;5022715;28;20021;-78
2022/04/15 03:58:51;;;;;;;26.25;13.65;;;;;;;6.63;81.88;102548.13;5026575;28;20036;-78
2022/04/15 04:01:16;;;;;;;31.25;16.23;;;;;;;6.67;82.73;102551.03;5025639;28;20081;-78
2022/04/15 04:03:42;;;;;;;32.22;17.25;;;;;;;6.71;83.65;102547.84;5024113;28;20032;-78
2022/04/15 04:06:07;;;;;;;33.38;18.85;;;;;;;6.76;85.52;102548.16;5026372;28;20033;-79
2022/04/15 04:08:32;;;;;;;32.53;18.88;;;;;;;6.83;86.24;102539.13;5026118;28;20288;-79
2022/04/15 04:10:57;;;;;;;33.22;19.20;;;;;;;6.91;87.83;102548.31;5025105;28;20029;-79
2022/04/15 04:13:23;;;;;;;33.88;19.27;;;;;;;6.99;88.08;102549.69;5024977;28;20187;-79
2022/04/15 04:15:49;;;;;;;32.50;19.00;;;;;;;7.04;88.73;102548.31;5024950;28;20013;-79
2022/04/15 04:18:17;;;;;;;37.67;19.92;;;;;;;7.11;89.34;102550.50;5025966;28;20314;-85
2022/04/15 04:20:43;;;;;;;35.55;20.15;;;;;;;7.18;89.89;102556.06;5025912;28;20029;-85
2022/04/15 04:23:08;;;;;;;32.08;19.35;;;;;;;7.22;89.85;102553.78;5024781;28;20152;-84
2022/04/15 04:25:34;;;;;;;31.48;18.98;;;;;;;7.25;89.72;102560.84;5025056;28;20026;-85
2022/04/15 04:28:00;;;;;;;30.08;18.58;;;;;;;7.26;90.35;102560.97;5025370;28;20042;-84
2022/04/15 04:30:25;;;;;;;30.58;18.88;;;;;;;7.32;90.15;102565.66;5026709;28;20017;-85
2022/04/15 04:32:51;;;;;;;27.60;18.55;;;;;;;7.36;89.97;102571.91;5025201;28;20029;-84
2022/04/15 04:35:19;;;;;;;32.10;17.88;;;;;;;7.38;90.25;102570.34;5023997;28;20094;-84
2022/04/15 04:37:44;;;;;;;30.33;17.80;;;;;;;7.40;90.17;102574.81;5023376;28;20018;-84
2022/04/15 04:40:10;;;;;;;28.92;17.40;;;;;;;7.42;89.77;102572.31;5026313;28;20080;-84
2022/04/15 04:42:36;;;;;;;28.48;17.15;;;;;;;7.43;89.99;102574.09;5025889;28;20044;-84
2022/04/15 04:45:02;;;;;;;26.58;16.52;;;;;;;7.45;89.90;102581.19;5026742;28;20018;-84
2022/04/15 04:47:28;;;;;;;26.02;16.70;;;;;;;7.46;89.82;102589.88;5025622;28;20045;-84
2022/04/15 04:49:55;;;;;;;22.60;14.95;;;;;;;7.47;89.72;102591.66;5024468;28;20029;-84
2022/04/15 04:52:22;;;;;;;26.75;15.38;;;;;;;7.46;89.21;102590.78;5025122;28;20026;-84
2022/04/15 04:54:47;;;;;;;23.88;14.60;;;;;;;7.43;89.13;102595.78;5024353;28;20264;-84
2022/04/15 04:57:13;;;;;;;19.35;12.43;;;;;;;7.45;89.35;102596.75;5023587;28;20018;-84
2022/04/15 04:59:38;;;;;;;20.77;12.27;;;;;;;7.44;89.08;102594.06;5026012;28;20051;-84
2022/04/15 05:02:03;;;;;;;21.52;13.05;;;;;;;7.43;89.35;102595.78;5025177;28;20032;-84
2022/04/15 05:04:29;;;;;;;21.63;13.68;;;;;;;7.46;89.57;102605.44;5024799;28;20265;-84
2022/04/15 05:06:55;;;;;;;22.65;13.45;;;;;;;7.45;89.45;102606.25;5024392;28;20021;-84
2022/04/15 05:09:21;;;;;;;22.50;13.77;;;;;;;7.48;89.95;102612.50;5025815;28;20018;-84
2022/04/15 05:11:46;;;;;;;21.15;13.27;;;;;;;7.50;89.76;102612.59;5023813;28;20095;-84
2022/04/15 05:14:11;;;;;;;24.17;13.50;;;;;;;7.52;90.19;102612.69;5025241;28;20180;-84
2022/04/15 05:16:37;;;;;;;23.48;13.98;;;;;;;7.53;90.04;102612.84;5025048;28;20092;-84
2022/04/15 05:19:02;;;;;;;26.35;14.75;;;;;;;7.57;90.34;102613.91;5023284;28;20018;-84
2022/04/15 05:21:27;;;;;;;26.30;15.00;;;;;;;7.59;90.36;102621.00;5023932;28;20038;-84
2022/04/15 05:23:53;;;;;;;25.73;15.35;;;;;;;7.61;90.72;102627.16;5025770;28;20209;-85
2022/04/15 05:26:20;;;;;;;26.35;15.45;;;;;;;7.65;90.51;102630.88;5024144;28;20093;-85
2022/04/15 05:28:45;;;;;;;25.77;14.57;;;;;;;7.65;90.51;102636.94;5024777;28;20192;-85
2022/04/15 05:31:11;;;;;;;27.08;15.77;;;;;;;7.69;90.53;102637.16;5024475;28;20265;-84
2022/04/15 05:33:37;;;;;;;24.33;14.23;;;;;;;7.72;90.45;102643.44;5023574;28;20199;-84
2022/04/15 05:36:02;;;;;;;24.75;13.27;;;;;;;7.74;90.74;102647.03;5024040;28;20033;-84
2022/04/15 05:38:28;;;;;;;24.73;13.98;;;;;;;7.74;90.34;102652.22;5025389;28;20049;-84
2022/04/15 05:40:53;;;;;;;23.55;13.32;;;;;;;7.77;90.07;102659.31;5023566;28;20013;-84
2022/04/15 05:43:19;;;;;;;21.50;13.10;;;;;;;7.77;90.39;102657.59;5016545;28;20081;-84
2022/04/15 05:45:44;;;;;;;24.55;13.85;;;;;;;7.77;90.65;102657.59;5023826;28;20021;-83
2022/04/15 05:48:09;;;;;;;25.02;14.20;;;;;;;7.78;90.37;102667.19;5023688;28;20029;-85
2022/04/15 05:50:35;;;;;;;26.50;14.40;;;;;;;7.83;90.23;102665.81;5025085;28;20018;-84
2022/04/15 05:53:00;;;;;;;31.13;15.00;;;;;;;7.85;90.45;102665.91;5024438;28;20022;-85
2022/04/15 05:55:26;;;;;;;25.40;14.35;;;;;;;7.89;90.32;102670.44;5024113;28;20029;-84
2022/04/15 05:57:51;;;;;;;27.08;14.93;;;;;;;7.92;90.38;102680.16;5022449;28;20037;-84
2022/04/15 06:00:17;;;;;;;25.95;15.02;;;;;;;7.92;90.68;102683.66;5023503;28;20034;-84
2022/04/15 06:02:43;;;;;;;28.33;14.90;;;;;;;7.94;90.71;102684.63;5023614;28;20268;-84
2022/04/15 06:05:08;;;;;;;29.00;14.73;;;;;;;7.97;90.95;102683.94;5024853;28;20013;-84
2022/04/15 06:07:34;;;;;;;27.77;15.00;;;;;;;7.99;90.96;102684.94;5022853;28;20026;-84
2022/04/15 06:09:59;;;;;;;27.00;14.93;;;;;;;8.00;90.71;102686.72;5024027;28;20076;-84
2022/04/15 06:15:24;;;;;;;27.90;14.68;;;;;;;8.05;90.70;102703.47;5024805;28;20371;-84
2022/04/15 06:17:50;;;;;;;27.13;14.15;;;;;;;8.05;90.55;102698.28;5021890;28;20005;-83
2022/04/15 06:20:17;;;;;;;29.48;14.48;;;;;;;8.06;90.34;102699.22;5023455;28;20028;-84
2022/04/15 06:22:43;;;;;;;27.70;15.25;;;;;;;8.06;90.88;102709.59;5038430;28;20409;-84
2022/04/15 06:25:09;;;;;;;27.92;15.25;;;;;;;8.07;90.75;102701.91;5024049;28;20080;-84
2022/04/15 06:27:34;;;;;;;28.27;15.02;;;;;;;8.09;91.16;102696.81;5023532;28;20279;-84
2022/04/15 06:30:00;;;;;;;26.83;14.38;;;;;;;8.11;91.08;102702.97;5020685;28;20033;-84
2022/04/15 06:32:25;;;;;;;27.70;14.93;;;;;;;8.14;91.14;102709.28;5023331;28;20048;-84
2022/04/15 06:34:50;;;;;;;26.75;14.75;;;;;;;8.17;90.92;102714.66;5023820;28;20173;-85
2022/04/15 06:37:16;;;;;;;29.50;14.80;;;;;;;8.21;90.83;102717.44;5023350;28;20053;-85
2022/04/15 06:39:42;;;;;;;27.83;15.57;;;;;;;8.22;90.77;102714.94;5023263;28;20168;-85
2022/04/15 06:42:08;;;;;;;28.70;15.07;;;;;;;8.24;90.92;102720.25;5022992;28;20315;-84
2022/04/15 06:44:37;;;;;;;29.85;15.88;;;;;;;8.25;91.27;102722.03;5023030;28;20010;-84
2022/04/15 06:47:02;;;;;;;29.63;15.17;;;;;;;8.29;90.60;102729.22;5023459;28;20025;-84
2022/04/15 06:49:28;;;;;;;25.23;14.70;;;;;;;8.31;90.64;102727.63;5024016;28;20018;-84
2022/04/15 06:51:53;;;;;;;29.63;14.38;;;;;;;8.32;90.32;102729.44;5011188;28;20045;-84
2022/04/15 06:54:19;;;;;;;27.67;15.18;;;;;;;8.35;90.60;102729.63;5021215;28;20204;-84
2022/04/15 06:56:44;;;;;;;29.08;14.82;;;;;;;8.36;90.76;102731.41;5018209;28;20022;-85
2022/04/15 06:59:09;;;;;;;28.80;15.30;;;;;;;8.38;90.82;102740.19;5014045;28;20013;-84
2022/04/15 07:01:35;;;;;;;28.48;14.98;;;;;;;8.42;90.72;102742.19;5022912;28;20022;-84
2022/04/15 07:04:02;;;;;;;29.20;15.10;;;;;;;8.43;90.83;102737.88;5022316;28;20018;-84
2022/04/15 07:06:28;;;;;;;30.23;15.52;;;;;;;8.44;90.78;102735.41;5020899;28;20014;-84
2022/04/15 07:08:53;;;;;;;28.40;14.15;;;;;;;8.45;90.76;102739.81;5023903;28;20017;-84
2022/04/15 07:11:18;;;;;;;24.38;13.98;;;;;;;8.47;90.49;102738.22;5021853;28;20121;-84
2022/04/15 07:13:43;;;;;;;27.15;13.20;;;;;;;8.48;90.51;102739.13;5023213;28;20025;-85
2022/04/15 07:16:09;;;;;;;26.20;13.48;;;;;;;8.50;90.56;102740.09;5022788;28;20029;-84
2022/04/15 07:18:34;;;;;;;26.33;13.43;;;;;;;8.50;90.47;102745.28;5023857;28;20207;-84
2022/04/15 07:20:59;;;;;;;25.60;13.23;;;;;;;8.51;90.67;102745.38;5021921;28;20046;-84
2022/04/15 07:23:24;;;;;;;29.67;14.00;;;;;;;8.56;90.84;102745.69;5021062;28;20192;-84
2022/04/15 07:25:50;;;;;;;26.73;13.93;;;;;;;8.58;90.96;102753.59;5023191;28;20165;-84
2022/04/15 07:28:15;;;;;;;25.02;13.40;;;;;;;8.60;90.79;102752.84;5019315;28;20097;-85
2022/04/15 07:30:40;;;;;;;26.02;13.38;;;;;;;8.63;90.93;102754.75;5024532;28;20331;-84
2022/04/15 07:33:05;;;;;;;27.60;13.45;;;;;;;8.63;90.66;102753.06;5025850;28;20026;-85
2022/04/15 07:35:32;;;;;;;25.75;13.20;;;;;;;8.65;90.35;102758.38;5025837;28;20132;-84
2022/04/15 07:37:57;;;;;;;26.33;13.27;;;;;;;8.67;90.46;102754.16;5026019;28;20017;-84
2022/04/15 07:40:27;;;;;;;27.08;13.15;;;;;;;8.70;89.67;102756.94;5027621;28;20072;-84
2022/04/15 07:42:53;;;;;;;33.05;14.95;;;;;;;8.71;90.15;102761.34;5026172;28;20025;-84
2022/04/15 07:45:18;;;;;;;29.52;14.35;;;;;;;8.73;90.12;102766.63;5026950;28;20026;-84
2022/04/15 07:47:44;;;;;;;28.33;14.43;;;;;;;8.75;90.19;102768.53;5025425;28;20066;-84
2022/04/15 07:50:10;;;;;;;27.08;13.68;;;;;;;8.77;89.92;102766.91;5025417;28;20014;-84
2022/04/15 07:52:35;;;;;;;27.05;14.25;;;;;;;8.75;89.83;102765.94;5023144;28;20154;-84
2022/04/15 07:55:01;;;;;;;28.00;14.57;;;;;;;8.79;89.86;102770.50;5024434;28;20073;-84
2022/04/15 07:57:29;;;;;;;25.85;13.38;;;;;;;8.80;90.16;102764.50;5025344;28;20017;-83
2022/04/15 07:59:55;;;;;;;23.80;12.63;;;;;;;8.85;89.82;102776.09;5027123;28;20036;-84
2022/04/15 08:02:20;;;;;;;21.05;11.98;;;;;;;8.86;89.09;102767.50;5021371;28;20014;-84
2022/04/15 08:04:45;;;;;;;24.27;12.20;;;;;;;8.92;89.33;102768.66;5025591;28;20077;-84
2022/04/15 08:07:11;;;;;;;22.15;11.50;;;;;;;8.94;88.90;102769.66;5024729;28;20071;-84
2022/04/15 08:09:39;;;;;;;23.00;11.85;;;;;;;8.96;88.60;102763.72;5017269;28;20046;-84
2022/04/15 08:12:05;;;;;;;23.10;11.80;;;;;;;9.01;88.33;102771.84;5017808;28;20032;-84
2022/04/15 08:14:30;;;;;;;24.20;12.10;;;;;;;9.05;88.92;102768.59;5024980;28;20037;-79
2022/04/15 08:16:56;;;;;;;23.63;12.07;;;;;;;9.09;88.52;102767.09;5025383;28;20029;-79
2022/04/15 08:19:21;;;;;;;20.80;11.85;;;;;;;9.14;88.31;102769.16;5024635;28;20028;-79
2022/04/15 08:21:46;;;;;;;19.48;11.23;;;;;;;9.18;87.10;102765.97;5026093;28;20038;-79
2022/04/15 08:24:12;;;;;;;20.60;10.30;;;;;;;9.23;86.97;102768.81;5025406;28;20033;-79
2022/04/15 08:26:37;;;;;;;20.70;10.55;;;;;;;9.30;87.01;102770.06;5024363;28;20014;-79
2022/04/15 08:29:02;;;;;;;17.73;10.00;;;;;;;9.34;84.99;102770.38;5026401;28;20085;-79
2022/04/15 08:31:27;;;;;;;18.75;9.90;;;;;;;9.40;84.93;102768.13;5024869;28;20030;-79
2022/04/15 08:33:53;;;;;;;17.90;9.80;;;;;;;9.45;85.05;102772.72;5024513;28;20308;-79
2022/04/15 08:36:18;;;;;;;17.30;9.68;;;;;;;9.51;84.71;102776.56;5023830;28;20264;-79
2022/04/15 08:38:44;;;;;;;17.58;10.18;;;;;;;9.58;84.93;102773.50;5025383;28;20280;-79
2022/04/15 08:41:12;;;;;;;17.35;9.80;;;;;;;9.64;83.76;102772.97;5025991;28;20033;-79
2022/04/15 08:43:39;;;;;;;17.77;10.18;;;;;;;9.69;83.83;102778.44;5025661;28;20159;-79
2022/04/15 08:46:05;;;;;;;16.95;9.50;;;;;;;9.73;82.72;102783.03;5025389;28;20025;-79
2022/04/15 08:48:31;;;;;;;16.55;10.32;;;;;;;9.79;82.88;102785.09;5025114;28;20021;-89
2022/04/15 08:50:59;;;;;;;17.27;10.93;;;;;;;9.82;82.21;102778.38;5024214;28;20025;-89
2022/04/15 08:53:25;;;;;;;17.35;10.30;;;;;;;9.87;82.38;102782.13;5025491;28;20018;-89
2022/04/15 08:55:50;;;;;;;20.67;10.68;;;;;;;9.92;82.47;102791.09;5024236;28;20045;-89
2022/04/15 08:58:15;;;;;;;17.88;9.65;;;;;;;9.97;81.31;102787.88;5025030;28;20080;-89
2022/04/15 09:00:41;;;;;;;17.75;9.88;;;;;;;10.02;81.77;102781.19;5025030;28;20021;-89
2022/04/15 09:03:06;;;;;;;14.70;9.88;;;;;;;10.09;81.36;102791.16;5024311;28;20028;-90
2022/04/15 09:05:32;;;;;;;15.05;9.65;;;;;;;10.15;80.53;102793.22;5019717;28;20068;-89
2022/04/15 09:08:07;;;;;;;15.32;9.85;;;;;;;10.22;80.28;102800.56;5024689;28;20081;-89
2022/04/15 09:10:33;;;;;;;15.05;9.43;;;;;;;10.21;77.42;102794.47;5024156;28;20096;-89
2022/04/15 09:13:00;;;;;;;17.42;9.20;;;;;;;10.24;78.13;102798.97;5023551;28;20026;-89
2022/04/15 09:15:25;;;;;;;15.55;9.50;;;;;;;10.29;79.30;102797.50;5024642;28;20114;-89
2022/04/15 09:17:52;;;;;;;16.13;9.75;;;;;;;10.33;77.31;102798.59;5022846;28;20022;-89
2022/04/15 09:20:19;;;;;;;16.13;9.45;;;;;;;10.35;76.99;102791.78;5023427;28;20180;-89
2022/04/15 09:22:45;;;;;;;18.20;9.80;;;;;;;10.42;77.90;102797.41;5024740;28;20042;-89
2022/04/15 09:25:11;;;;;;;18.08;10.63;;;;;;;10.50;78.59;102803.06;5024109;28;20205;-89
2022/04/15 09:27:38;;;;;;;15.48;9.48;;;;;;;10.60;77.70;102804.44;5022164;28;20283;-88
2022/04/15 09:30:04;;;;;;;15.43;9.82;;;;;;;10.76;78.43;102806.19;5024800;28;20030;-88
2022/04/15 09:32:30;;;;;;;14.13;9.25;;;;;;;10.87;75.34;102802.44;5024412;28;20045;-88
2022/04/15 09:35:00;;;;;;;13.13;9.23;;;;;;;10.92;74.34;102795.78;5025080;28;20257;-89
2022/04/15 09:37:27;;;;;;;13.32;9.18;;;;;;;10.97;73.76;102809.06;5025263;28;20022;-89
2022/04/15 09:40:12;;;;;;;15.07;9.10;;;;;;;11.00;74.36;102803.13;5024003;28;20164;-89
2022/04/15 09:42:48;;;;;;;15.10;9.30;;;;;;;11.02;73.92;102810.22;5025473;28;20283;-89
2022/04/15 09:45:22;;;;;;;16.02;9.50;;;;;;;11.08;74.93;102809.63;5024018;28;20092;-89
2022/04/15 09:47:51;;;;;;;14.27;8.85;;;;;;;11.13;73.78;102821.22;5015616;28;20026;-89
2022/04/15 09:50:25;;;;;;;13.77;8.80;;;;;;;11.22;73.16;102807.75;5023130;28;20160;-90
2022/04/15 09:52:53;;;;;;;13.88;9.05;;;;;;;11.30;73.18;102815.19;5024768;28;20041;-89
2022/04/15 09:55:20;;;;;;;15.00;9.23;;;;;;;11.43;75.20;102808.00;5022382;28;20088;-89
2022/04/15 09:57:50;;;;;;;13.25;9.15;;;;;;;11.56;75.29;102804.31;5023434;28;20010;-89
2022/04/15 10:00:17;;;;;;;13.48;8.98;;;;;;;11.65;73.46;102810.00;5021540;28;20029;-88
2022/04/15 10:02:43;;;;;;;17.63;9.70;;;;;;;11.71;71.53;102812.00;5024267;28;20084;-89
2022/04/15 10:05:12;;;;;;;13.15;8.93;;;;;;;11.74;72.27;102805.22;5024725;28;20083;-89
2022/04/15 10:07:40;;;;;;;11.35;8.32;;;;;;;11.76;69.50;102806.22;5023404;28;20018;-89
2022/04/15 10:10:06;;;;;;;12.40;8.68;;;;;;;11.78;70.09;102806.28;5023713;28;20024;-89
2022/04/15 10:12:37;;;;;;;13.40;9.05;;;;;;;11.85;71.03;102805.78;5014572;28;20053;-89
2022/04/15 10:15:05;;;;;;;12.68;8.77;;;;;;;11.98;71.31;102807.31;5024007;28;20013;-89
2022/04/15 10:17:31;;;;;;;12.88;9.15;;;;;;;12.09;70.24;102803.47;5024182;28;20253;-89
2022/04/15 10:19:57;;;;;;;13.88;8.80;;;;;;;12.20;70.98;102806.66;5024078;28;20026;-88
2022/04/15 10:22:23;;;;;;;13.32;8.63;;;;;;;12.25;70.33;102802.53;5021992;28;20105;-88
2022/04/15 10:24:48;;;;;;;12.75;8.85;;;;;;;12.30;70.46;102801.03;5022690;28;20365;-88
2022/04/15 10:27:14;;;;;;;14.23;9.48;;;;;;;12.36;68.70;102797.81;5021269;28;20264;-78
2022/04/15 10:29:39;;;;;;;12.93;8.35;;;;;;;12.44;68.38;102800.78;5024178;28;20017;-78
2022/04/15 10:32:16;;;;;;;11.55;8.57;;;;;;;12.52;68.17;102804.66;5022301;28;20030;-78
2022/04/15 10:34:46;;;;;;;13.65;9.13;;;;;;;12.63;68.21;102803.47;5023101;28;20032;-78
2022/04/15 10:37:12;;;;;;;12.05;8.90;;;;;;;12.79;71.18;102802.44;5022333;28;20026;-78
2022/04/15 10:39:48;;;;;;;12.35;8.20;;;;;;;12.93;69.23;102794.31;5021380;28;20199;-78
2022/04/15 10:42:20;;;;;;;13.07;8.07;;;;;;;13.08;67.74;102796.72;5016052;28;20041;-78
2022/04/15 10:44:46;;;;;;;11.57;7.90;;;;;;;13.16;68.41;102797.97;5023808;28;20059;-78
2022/04/15 10:47:14;;;;;;;12.25;8.70;;;;;;;13.18;67.72;102793.72;5023328;28;20026;-78
2022/04/15 10:49:53;;;;;;;10.75;8.02;;;;;;;13.18;68.39;102796.34;5023283;28;20028;-78
2022/04/15 10:52:25;;;;;;;11.32;8.60;;;;;;;13.21;65.93;102788.63;5023606;28;20097;-78
2022/04/15 10:54:52;;;;;;;12.32;8.27;;;;;;;13.25;66.13;102797.50;5024097;28;20207;-78
2022/04/15 10:57:21;;;;;;;11.52;8.80;;;;;;;13.20;64.59;102792.06;5022944;28;20161;-78
2022/04/15 11:02:51;;;;;;;10.98;8.20;;;;;;;13.18;66.98;102788.50;5022456;28;20068;-86
2022/04/15 11:05:44;;;;;;;13.05;9.20;;;;;;;13.19;66.62;102790.25;5022932;28;20044;-86
2022/04/15 11:08:14;;;;;;;12.80;9.48;;;;;;;13.25;65.63;102789.63;5022420;28;20033;-86
2022/04/15 11:10:42;;;;;;;14.05;9.50;;;;;;;13.31;64.72;102790.81;5018477;28;20237;-86
2022/04/15 11:13:28;;;;;;;11.57;8.90;;;;;;;13.36;66.15;102789.31;5022392;28;20065;-86
2022/04/15 11:15:57;;;;;;;13.57;8.68;;;;;;;13.38;65.99;102787.66;5023002;28;20033;-86
2022/04/15 11:18:23;;;;;;;10.35;8.57;;;;;;;13.45;65.73;102782.69;5023264;28;20292;-86
2022/04/15 11:20:49;;;;;;;12.82;9.10;;;;;;;13.53;67.87;102791.78;5022838;28;20053;-87